sensor_id;sensor_type;location;lat;lon;timestamp;P1;durP1;ratioP1;P2;durP2;ratioP2
20611;SDS011;10465;42.686;23.364;2024-01-07T00:00:02;13.52;;;7.90;;
20611;SDS011;10465;42.686;23.364;2024-01-07T00:02:28;13.25;;;7.55;;
20611;SDS011;10465;42.686;23.364;2024-01-07T00:04:54;16.50;;;8.55;;
20611;SDS011;10465;42.686;23.364;2024-01-07T00:07:19;11.32;;;6.63;;
20611;SDS011;10465;42.686;23.364;2024-01-07T00:09:45;15.23;;;7.22;;
20611;SDS011;10465;42.686;23.364;2024-01-07T00:12:11;10.77;;;6.53;;
20611;SDS011;10465;42.686;23.364;2024-01-07T00:14:36;12.27;;;6.72;;
20611;SDS011;10465;42.686;23.364;2024-01-07T00:17:02;12.45;;;6.78;;
20611;SDS011;10465;42.686;23.364;2024-01-07T00:19:27;13.68;;;6.43;;
20611;SDS011;10465;42.686;23.364;2024-01-07T00:21:53;15.38;;;9.35;;
20611;SDS011;10465;42.686;23.364;2024-01-07T00:24:18;14.25;;;7.95;;
20611;SDS011;10465;42.686;23.364;2024-01-07T00:26:43;13.25;;;7.40;;
20611;SDS011;10465;42.686;23.364;2024-01-07T00:29:09;12.07;;;6.65;;
20611;SDS011;10465;42.686;23.364;2024-01-07T00:31:34;13.35;;;8.07;;
20611;SDS011;10465;42.686;23.364;2024-01-07T00:34:00;16.65;;;9.85;;
20611;SDS011;10465;42.686;23.364;2024-01-07T00:36:25;21.52;;;12.90;;
20611;SDS011;10465;42.686;23.364;2024-01-07T00:38:50;25.30;;;14.38;;
20611;SDS011;10465;42.686;23.364;2024-01-07T00:41:16;24.33;;;14.57;;
20611;SDS011;10465;42.686;23.364;2024-01-07T00:43:41;25.70;;;15.30;;
20611;SDS011;10465;42.686;23.364;2024-01-07T00:46:07;25.77;;;16.17;;
20611;SDS011;10465;42.686;23.364;2024-01-07T00:48:32;27.25;;;14.93;;
20611;SDS011;10465;42.686;23.364;2024-01-07T00:50:58;27.17;;;13.90;;
20611;SDS011;10465;42.686;23.364;2024-01-07T00:53:23;25.48;;;14.05;;
20611;SDS011;10465;42.686;23.364;2024-01-07T00:55:48;23.00;;;13.63;;
20611;SDS011;10465;42.686;23.364;2024-01-07T00:58:14;23.00;;;13.23;;
20611;SDS011;10465;42.686;23.364;2024-01-07T01:00:39;26.20;;;13.32;;
20611;SDS011;10465;42.686;23.364;2024-01-07T01:03:05;23.38;;;12.32;;
20611;SDS011;10465;42.686;23.364;2024-01-07T01:05:30;23.55;;;13.10;;
20611;SDS011;10465;42.686;23.364;2024-01-07T01:07:56;23.50;;;13.10;;
20611;SDS011;10465;42.686;23.364;2024-01-07T01:10:21;21.80;;;13.48;;
20611;SDS011;10465;42.686;23.364;2024-01-07T01:12:46;26.05;;;14.65;;
20611;SDS011;10465;42.686;23.364;2024-01-07T01:15:12;24.25;;;13.95;;
20611;SDS011;10465;42.686;23.364;2024-01-07T01:17:37;23.63;;;13.13;;
20611;SDS011;10465;42.686;23.364;2024-01-07T01:20:03;25.40;;;13.70;;
20611;SDS011;10465;42.686;23.364;2024-01-07T01:22:29;26.13;;;13.55;;
20611;SDS011;10465;42.686;23.364;2024-01-07T01:24:54;24.50;;;12.85;;
20611;SDS011;10465;42.686;23.364;2024-01-07T01:27:21;22.67;;;13.20;;
20611;SDS011;10465;42.686;23.364;2024-01-07T01:29:46;21.08;;;12.57;;
20611;SDS011;10465;42.686;23.364;2024-01-07T01:32:12;22.77;;;12.85;;
20611;SDS011;10465;42.686;23.364;2024-01-07T01:34:37;23.77;;;12.85;;
20611;SDS011;10465;42.686;23.364;2024-01-07T01:37:05;21.77;;;12.48;;
20611;SDS011;10465;42.686;23.364;2024-01-07T01:39:30;23.27;;;11.95;;
20611;SDS011;10465;42.686;23.364;2024-01-07T01:41:56;22.92;;;12.32;;
20611;SDS011;10465;42.686;23.364;2024-01-07T01:44:23;20.73;;;12.18;;
20611;SDS011;10465;42.686;23.364;2024-01-07T01:46:48;23.27;;;13.30;;
20611;SDS011;10465;42.686;23.364;2024-01-07T01:49:14;26.77;;;12.95;;
20611;SDS011;10465;42.686;23.364;2024-01-07T01:51:40;23.60;;;12.50;;
20611;SDS011;10465;42.686;23.364;2024-01-07T01:54:06;22.05;;;11.35;;
20611;SDS011;10465;42.686;23.364;2024-01-07T01:56:32;21.67;;;12.38;;
20611;SDS011;10465;42.686;23.364;2024-01-07T01:58:58;20.27;;;11.10;;
20611;SDS011;10465;42.686;23.364;2024-01-07T02:01:24;23.83;;;12.40;;
20611;SDS011;10465;42.686;23.364;2024-01-07T02:03:50;23.92;;;11.80;;
20611;SDS011;10465;42.686;23.364;2024-01-07T02:06:17;23.08;;;12.50;;
20611;SDS011;10465;42.686;23.364;2024-01-07T02:08:43;21.05;;;12.38;;
20611;SDS011;10465;42.686;23.364;2024-01-07T02:13:45;22.13;;;11.75;;
20611;SDS011;10465;42.686;23.364;2024-01-07T02:16:11;17.10;;;10.75;;
20611;SDS011;10465;42.686;23.364;2024-01-07T02:18:45;19.38;;;11.15;;
20611;SDS011;10465;42.686;23.364;2024-01-07T02:21:12;22.52;;;12.05;;
20611;SDS011;10465;42.686;23.364;2024-01-07T02:23:38;19.98;;;11.40;;
20611;SDS011;10465;42.686;23.364;2024-01-07T02:26:04;19.50;;;11.32;;
20611;SDS011;10465;42.686;23.364;2024-01-07T02:28:30;14.13;;;9.90;;
20611;SDS011;10465;42.686;23.364;2024-01-07T02:30:56;19.83;;;12.20;;
20611;SDS011;10465;42.686;23.364;2024-01-07T02:33:21;18.77;;;11.45;;
20611;SDS011;10465;42.686;23.364;2024-01-07T02:35:47;19.35;;;9.65;;
20611;SDS011;10465;42.686;23.364;2024-01-07T02:38:13;22.05;;;10.43;;
20611;SDS011;10465;42.686;23.364;2024-01-07T02:40:38;14.45;;;9.60;;
20611;SDS011;10465;42.686;23.364;2024-01-07T02:43:03;17.15;;;8.82;;
20611;SDS011;10465;42.686;23.364;2024-01-07T02:45:29;16.95;;;9.52;;
20611;SDS011;10465;42.686;23.364;2024-01-07T02:47:54;15.25;;;8.55;;
20611;SDS011;10465;42.686;23.364;2024-01-07T02:50:20;13.93;;;8.68;;
20611;SDS011;10465;42.686;23.364;2024-01-07T02:52:45;15.50;;;8.23;;
20611;SDS011;10465;42.686;23.364;2024-01-07T02:55:11;14.75;;;8.02;;
20611;SDS011;10465;42.686;23.364;2024-01-07T02:57:36;11.43;;;6.90;;
20611;SDS011;10465;42.686;23.364;2024-01-07T03:00:02;14.68;;;8.32;;
20611;SDS011;10465;42.686;23.364;2024-01-07T03:02:29;13.98;;;8.27;;
20611;SDS011;10465;42.686;23.364;2024-01-07T03:04:55;11.88;;;7.63;;
20611;SDS011;10465;42.686;23.364;2024-01-07T03:07:20;14.65;;;8.15;;
20611;SDS011;10465;42.686;23.364;2024-01-07T03:09:46;13.05;;;7.13;;
20611;SDS011;10465;42.686;23.364;2024-01-07T03:12:14;11.70;;;7.65;;
20611;SDS011;10465;42.686;23.364;2024-01-07T03:14:40;16.77;;;9.02;;
20611;SDS011;10465;42.686;23.364;2024-01-07T03:17:05;13.63;;;8.55;;
20611;SDS011;10465;42.686;23.364;2024-01-07T03:19:31;14.32;;;8.70;;
20611;SDS011;10465;42.686;23.364;2024-01-07T03:21:56;16.25;;;8.98;;
20611;SDS011;10465;42.686;23.364;2024-01-07T03:24:23;17.60;;;9.77;;
20611;SDS011;10465;42.686;23.364;2024-01-07T03:26:48;20.88;;;11.95;;
20611;SDS011;10465;42.686;23.364;2024-01-07T03:29:13;22.73;;;12.73;;
20611;SDS011;10465;42.686;23.364;2024-01-07T03:31:39;21.70;;;12.48;;
20611;SDS011;10465;42.686;23.364;2024-01-07T03:34:04;21.33;;;12.07;;
20611;SDS011;10465;42.686;23.364;2024-01-07T03:36:30;19.63;;;10.75;;
20611;SDS011;10465;42.686;23.364;2024-01-07T03:38:55;15.63;;;10.18;;
20611;SDS011;10465;42.686;23.364;2024-01-07T03:41:20;22.30;;;11.77;;
20611;SDS011;10465;42.686;23.364;2024-01-07T03:43:46;19.10;;;10.15;;
20611;SDS011;10465;42.686;23.364;2024-01-07T03:46:13;15.85;;;9.32;;
20611;SDS011;10465;42.686;23.364;2024-01-07T03:48:38;17.55;;;8.70;;
20611;SDS011;10465;42.686;23.364;2024-01-07T03:51:05;13.75;;;8.48;;
20611;SDS011;10465;42.686;23.364;2024-01-07T03:53:30;15.98;;;9.10;;
20611;SDS011;10465;42.686;23.364;2024-01-07T03:55:55;14.45;;;8.95;;
20611;SDS011;10465;42.686;23.364;2024-01-07T03:58:21;12.30;;;7.47;;
20611;SDS011;10465;42.686;23.364;2024-01-07T04:00:46;15.68;;;7.72;;
20611;SDS011;10465;42.686;23.364;2024-01-07T04:03:12;13.18;;;7.60;;
20611;SDS011;10465;42.686;23.364;2024-01-07T04:05:37;14.15;;;7.50;;
20611;SDS011;10465;42.686;23.364;2024-01-07T04:08:03;14.38;;;7.43;;
20611;SDS011;10465;42.686;23.364;2024-01-07T04:10:28;13.63;;;7.13;;
20611;SDS011;10465;42.686;23.364;2024-01-07T04:12:54;11.75;;;7.28;;
20611;SDS011;10465;42.686;23.364;2024-01-07T04:15:19;8.48;;;6.03;;
20611;SDS011;10465;42.686;23.364;2024-01-07T04:17:45;9.13;;;6.03;;
20611;SDS011;10465;42.686;23.364;2024-01-07T04:20:12;9.43;;;5.80;;
20611;SDS011;10465;42.686;23.364;2024-01-07T04:22:39;7.95;;;5.00;;
20611;SDS011;10465;42.686;23.364;2024-01-07T04:25:04;11.38;;;5.88;;
20611;SDS011;10465;42.686;23.364;2024-01-07T04:27:36;8.20;;;5.45;;
20611;SDS011;10465;42.686;23.364;2024-01-07T04:30:02;8.70;;;4.70;;
20611;SDS011;10465;42.686;23.364;2024-01-07T04:32:29;10.40;;;4.97;;
20611;SDS011;10465;42.686;23.364;2024-01-07T04:34:54;4.97;;;3.75;;
20611;SDS011;10465;42.686;23.364;2024-01-07T04:37:21;6.22;;;3.58;;
20611;SDS011;10465;42.686;23.364;2024-01-07T04:39:47;8.43;;;4.40;;
20611;SDS011;10465;42.686;23.364;2024-01-07T04:42:12;8.77;;;4.40;;
20611;SDS011;10465;42.686;23.364;2024-01-07T04:44:38;5.68;;;4.15;;
20611;SDS011;10465;42.686;23.364;2024-01-07T04:47:03;6.65;;;4.10;;
20611;SDS011;10465;42.686;23.364;2024-01-07T04:49:29;6.65;;;3.90;;
20611;SDS011;10465;42.686;23.364;2024-01-07T04:51:54;8.15;;;4.10;;
20611;SDS011;10465;42.686;23.364;2024-01-07T04:54:20;8.27;;;6.13;;
20611;SDS011;10465;42.686;23.364;2024-01-07T04:56:45;14.45;;;7.35;;
20611;SDS011;10465;42.686;23.364;2024-01-07T04:59:10;15.15;;;7.20;;
20611;SDS011;10465;42.686;23.364;2024-01-07T05:01:36;13.27;;;7.60;;
20611;SDS011;10465;42.686;23.364;2024-01-07T05:04:02;13.30;;;7.78;;
20611;SDS011;10465;42.686;23.364;2024-01-07T05:06:27;13.52;;;7.65;;
20611;SDS011;10465;42.686;23.364;2024-01-07T05:08:53;14.13;;;8.20;;
20611;SDS011;10465;42.686;23.364;2024-01-07T05:11:18;10.82;;;6.90;;
20611;SDS011;10465;42.686;23.364;2024-01-07T05:13:44;12.40;;;7.80;;
20611;SDS011;10465;42.686;23.364;2024-01-07T05:16:17;11.70;;;7.72;;
20611;SDS011;10465;42.686;23.364;2024-01-07T05:18:43;12.00;;;7.00;;
20611;SDS011;10465;42.686;23.364;2024-01-07T05:21:13;15.95;;;8.77;;
20611;SDS011;10465;42.686;23.364;2024-01-07T05:23:40;13.63;;;8.35;;
20611;SDS011;10465;42.686;23.364;2024-01-07T05:26:05;15.80;;;8.77;;
20611;SDS011;10465;42.686;23.364;2024-01-07T05:28:30;13.43;;;8.02;;
20611;SDS011;10465;42.686;23.364;2024-01-07T05:30:56;15.93;;;7.97;;
20611;SDS011;10465;42.686;23.364;2024-01-07T05:33:21;14.07;;;6.97;;
20611;SDS011;10465;42.686;23.364;2024-01-07T05:35:46;11.93;;;8.23;;
20611;SDS011;10465;42.686;23.364;2024-01-07T05:38:12;14.13;;;7.90;;
20611;SDS011;10465;42.686;23.364;2024-01-07T05:40:37;13.65;;;7.65;;
20611;SDS011;10465;42.686;23.364;2024-01-07T05:43:03;10.75;;;7.40;;
20611;SDS011;10465;42.686;23.364;2024-01-07T05:50:38;14.40;;;7.75;;
20611;SDS011;10465;42.686;23.364;2024-01-07T05:53:04;13.77;;;7.78;;
20611;SDS011;10465;42.686;23.364;2024-01-07T05:55:30;10.85;;;6.45;;
20611;SDS011;10465;42.686;23.364;2024-01-07T05:57:56;13.07;;;7.57;;
20611;SDS011;10465;42.686;23.364;2024-01-07T06:00:21;12.63;;;6.90;;
20611;SDS011;10465;42.686;23.364;2024-01-07T06:02:48;13.10;;;7.28;;
20611;SDS011;10465;42.686;23.364;2024-01-07T06:05:13;11.55;;;6.97;;
20611;SDS011;10465;42.686;23.364;2024-01-07T06:07:39;13.02;;;6.88;;
20611;SDS011;10465;42.686;23.364;2024-01-07T06:10:04;10.85;;;5.93;;
20611;SDS011;10465;42.686;23.364;2024-01-07T06:12:31;10.52;;;6.53;;
20611;SDS011;10465;42.686;23.364;2024-01-07T06:14:57;15.23;;;6.90;;
20611;SDS011;10465;42.686;23.364;2024-01-07T06:17:22;11.65;;;7.07;;
20611;SDS011;10465;42.686;23.364;2024-01-07T06:19:47;10.98;;;6.53;;
20611;SDS011;10465;42.686;23.364;2024-01-07T06:27:23;12.63;;;7.00;;
20611;SDS011;10465;42.686;23.364;2024-01-07T06:29:49;10.45;;;7.07;;
20611;SDS011;10465;42.686;23.364;2024-01-07T06:32:14;12.48;;;7.57;;
20611;SDS011;10465;42.686;23.364;2024-01-07T06:34:40;11.65;;;7.70;;
20611;SDS011;10465;42.686;23.364;2024-01-07T06:37:07;11.23;;;7.22;;
20611;SDS011;10465;42.686;23.364;2024-01-07T06:39:35;14.13;;;6.53;;
20611;SDS011;10465;42.686;23.364;2024-01-07T06:42:00;13.13;;;7.65;;
20611;SDS011;10465;42.686;23.364;2024-01-07T06:44:26;11.98;;;7.05;;
20611;SDS011;10465;42.686;23.364;2024-01-07T06:49:27;11.82;;;7.25;;
20611;SDS011;10465;42.686;23.364;2024-01-07T06:51:52;11.57;;;6.80;;
20611;SDS011;10465;42.686;23.364;2024-01-07T06:54:18;11.63;;;7.05;;
20611;SDS011;10465;42.686;23.364;2024-01-07T06:56:43;13.40;;;7.57;;
20611;SDS011;10465;42.686;23.364;2024-01-07T06:59:08;13.15;;;7.13;;
20611;SDS011;10465;42.686;23.364;2024-01-07T07:01:35;12.40;;;7.68;;
20611;SDS011;10465;42.686;23.364;2024-01-07T07:04:00;13.38;;;7.68;;
20611;SDS011;10465;42.686;23.364;2024-01-07T07:06:26;14.77;;;7.63;;
20611;SDS011;10465;42.686;23.364;2024-01-07T07:08:51;12.15;;;6.45;;
20611;SDS011;10465;42.686;23.364;2024-01-07T07:11:17;10.68;;;6.63;;
20611;SDS011;10465;42.686;23.364;2024-01-07T07:13:42;11.90;;;7.18;;
20611;SDS011;10465;42.686;23.364;2024-01-07T07:16:08;14.77;;;8.05;;
20611;SDS011;10465;42.686;23.364;2024-01-07T07:18:35;10.57;;;6.63;;
20611;SDS011;10465;42.686;23.364;2024-01-07T07:21:00;11.02;;;6.30;;
20611;SDS011;10465;42.686;23.364;2024-01-07T07:23:25;11.35;;;6.63;;
20611;SDS011;10465;42.686;23.364;2024-01-07T07:25:51;9.25;;;6.10;;
20611;SDS011;10465;42.686;23.364;2024-01-07T07:28:17;11.43;;;6.45;;
20611;SDS011;10465;42.686;23.364;2024-01-07T07:33:18;10.35;;;5.82;;
20611;SDS011;10465;42.686;23.364;2024-01-07T07:35:43;11.68;;;6.55;;
20611;SDS011;10465;42.686;23.364;2024-01-07T07:38:09;8.40;;;5.70;;
20611;SDS011;10465;42.686;23.364;2024-01-07T07:40:34;13.60;;;6.45;;
20611;SDS011;10465;42.686;23.364;2024-01-07T07:43:00;10.02;;;6.20;;
20611;SDS011;10465;42.686;23.364;2024-01-07T07:45:25;14.00;;;7.45;;
20611;SDS011;10465;42.686;23.364;2024-01-07T07:47:50;10.90;;;6.50;;
20611;SDS011;10465;42.686;23.364;2024-01-07T07:50:16;12.13;;;6.20;;
20611;SDS011;10465;42.686;23.364;2024-01-07T07:52:42;10.68;;;6.25;;
20611;SDS011;10465;42.686;23.364;2024-01-07T07:55:08;13.20;;;6.28;;
20611;SDS011;10465;42.686;23.364;2024-01-07T07:57:34;11.02;;;6.45;;
20611;SDS011;10465;42.686;23.364;2024-01-07T08:00:00;9.93;;;6.97;;
20611;SDS011;10465;42.686;23.364;2024-01-07T08:02:26;11.77;;;6.95;;
20611;SDS011;10465;42.686;23.364;2024-01-07T08:04:51;14.88;;;7.82;;
20611;SDS011;10465;42.686;23.364;2024-01-07T08:07:17;17.42;;;9.00;;
20611;SDS011;10465;42.686;23.364;2024-01-07T08:09:43;16.52;;;10.07;;
20611;SDS011;10465;42.686;23.364;2024-01-07T08:12:08;22.50;;;11.60;;
20611;SDS011;10465;42.686;23.364;2024-01-07T08:14:35;18.88;;;12.07;;
20611;SDS011;10465;42.686;23.364;2024-01-07T08:17:00;22.45;;;12.95;;
20611;SDS011;10465;42.686;23.364;2024-01-07T08:19:26;25.45;;;13.60;;
20611;SDS011;10465;42.686;23.364;2024-01-07T08:21:51;23.85;;;13.15;;
20611;SDS011;10465;42.686;23.364;2024-01-07T08:24:18;28.77;;;15.70;;
20611;SDS011;10465;42.686;23.364;2024-01-07T08:26:43;20.20;;;12.43;;
20611;SDS011;10465;42.686;23.364;2024-01-07T08:29:09;28.13;;;14.32;;
20611;SDS011;10465;42.686;23.364;2024-01-07T08:31:34;26.55;;;14.30;;
20611;SDS011;10465;42.686;23.364;2024-01-07T08:34:00;22.90;;;14.80;;
20611;SDS011;10465;42.686;23.364;2024-01-07T08:36:25;25.73;;;15.10;;
20611;SDS011;10465;42.686;23.364;2024-01-07T08:38:51;25.33;;;15.93;;
20611;SDS011;10465;42.686;23.364;2024-01-07T08:41:16;26.25;;;15.15;;
20611;SDS011;10465;42.686;23.364;2024-01-07T08:43:42;24.33;;;15.45;;
20611;SDS011;10465;42.686;23.364;2024-01-07T08:46:09;25.40;;;15.57;;
20611;SDS011;10465;42.686;23.364;2024-01-07T08:48:34;27.23;;;16.85;;
20611;SDS011;10465;42.686;23.364;2024-01-07T08:50:59;25.55;;;16.50;;
20611;SDS011;10465;42.686;23.364;2024-01-07T08:53:25;24.70;;;15.50;;
20611;SDS011;10465;42.686;23.364;2024-01-07T08:55:50;22.65;;;12.65;;
20611;SDS011;10465;42.686;23.364;2024-01-07T08:58:16;22.60;;;12.88;;
20611;SDS011;10465;42.686;23.364;2024-01-07T09:00:42;20.85;;;11.75;;
20611;SDS011;10465;42.686;23.364;2024-01-07T09:03:08;17.73;;;11.43;;
20611;SDS011;10465;42.686;23.364;2024-01-07T09:05:34;18.60;;;10.98;;
20611;SDS011;10465;42.686;23.364;2024-01-07T09:08:00;20.58;;;11.95;;
20611;SDS011;10465;42.686;23.364;2024-01-07T09:10:26;17.50;;;10.88;;
20611;SDS011;10465;42.686;23.364;2024-01-07T09:12:52;19.27;;;9.60;;
20611;SDS011;10465;42.686;23.364;2024-01-07T09:15:18;20.17;;;10.95;;
20611;SDS011;10465;42.686;23.364;2024-01-07T09:17:45;21.20;;;11.57;;
20611;SDS011;10465;42.686;23.364;2024-01-07T09:20:11;16.92;;;9.55;;
20611;SDS011;10465;42.686;23.364;2024-01-07T09:22:37;16.23;;;9.38;;
20611;SDS011;10465;42.686;23.364;2024-01-07T09:25:03;15.40;;;10.10;;
20611;SDS011;10465;42.686;23.364;2024-01-07T09:27:30;17.77;;;9.57;;
20611;SDS011;10465;42.686;23.364;2024-01-07T09:29:56;13.95;;;8.70;;
20611;SDS011;10465;42.686;23.364;2024-01-07T09:32:22;11.63;;;6.97;;
20611;SDS011;10465;42.686;23.364;2024-01-07T09:34:47;11.15;;;7.13;;
20611;SDS011;10465;42.686;23.364;2024-01-07T09:37:13;12.88;;;7.53;;
20611;SDS011;10465;42.686;23.364;2024-01-07T09:39:42;12.00;;;7.35;;
20611;SDS011;10465;42.686;23.364;2024-01-07T09:42:12;13.63;;;8.43;;
20611;SDS011;10465;42.686;23.364;2024-01-07T09:44:39;12.27;;;7.90;;
20611;SDS011;10465;42.686;23.364;2024-01-07T09:47:11;12.63;;;7.68;;
20611;SDS011;10465;42.686;23.364;2024-01-07T09:49:41;15.98;;;9.10;;
20611;SDS011;10465;42.686;23.364;2024-01-07T09:52:08;13.35;;;8.73;;
20611;SDS011;10465;42.686;23.364;2024-01-07T09:54:38;13.52;;;7.85;;
20611;SDS011;10465;42.686;23.364;2024-01-07T09:57:05;13.65;;;8.07;;
20611;SDS011;10465;42.686;23.364;2024-01-07T09:59:32;13.10;;;7.50;;
20611;SDS011;10465;42.686;23.364;2024-01-07T10:01:58;14.45;;;6.40;;
20611;SDS011;10465;42.686;23.364;2024-01-07T10:04:24;10.18;;;6.13;;
20611;SDS011;10465;42.686;23.364;2024-01-07T10:06:50;10.32;;;7.20;;
20611;SDS011;10465;42.686;23.364;2024-01-07T10:09:19;11.95;;;7.35;;
20611;SDS011;10465;42.686;23.364;2024-01-07T10:11:46;7.35;;;5.28;;
20611;SDS011;10465;42.686;23.364;2024-01-07T10:14:12;8.43;;;4.60;;
20611;SDS011;10465;42.686;23.364;2024-01-07T10:16:38;6.18;;;4.30;;
20611;SDS011;10465;42.686;23.364;2024-01-07T10:19:04;6.20;;;4.40;;
20611;SDS011;10465;42.686;23.364;2024-01-07T10:21:30;6.95;;;4.97;;
20611;SDS011;10465;42.686;23.364;2024-01-07T10:24:08;7.45;;;4.93;;
20611;SDS011;10465;42.686;23.364;2024-01-07T10:26:38;8.68;;;4.78;;
20611;SDS011;10465;42.686;23.364;2024-01-07T10:29:04;8.30;;;4.80;;
20611;SDS011;10465;42.686;23.364;2024-01-07T10:31:31;14.10;;;7.80;;
20611;SDS011;10465;42.686;23.364;2024-01-07T10:33:57;20.30;;;12.75;;
20611;SDS011;10465;42.686;23.364;2024-01-07T10:36:22;21.75;;;13.35;;
20611;SDS011;10465;42.686;23.364;2024-01-07T10:38:49;10.57;;;6.50;;
20611;SDS011;10465;42.686;23.364;2024-01-07T10:41:17;9.90;;;5.20;;
20611;SDS011;10465;42.686;23.364;2024-01-07T10:43:43;10.57;;;6.28;;
20611;SDS011;10465;42.686;23.364;2024-01-07T10:46:14;13.45;;;7.38;;
20611;SDS011;10465;42.686;23.364;2024-01-07T10:48:43;7.60;;;5.40;;
20611;SDS011;10465;42.686;23.364;2024-01-07T10:51:18;9.30;;;5.40;;
20611;SDS011;10465;42.686;23.364;2024-01-07T10:53:46;13.05;;;7.10;;
20611;SDS011;10465;42.686;23.364;2024-01-07T10:56:18;10.55;;;6.55;;
20611;SDS011;10465;42.686;23.364;2024-01-07T10:58:49;12.20;;;8.30;;
20611;SDS011;10465;42.686;23.364;2024-01-07T11:01:17;16.80;;;10.07;;
20611;SDS011;10465;42.686;23.364;2024-01-07T11:03:46;9.90;;;7.47;;
20611;SDS011;10465;42.686;23.364;2024-01-07T11:06:23;13.88;;;7.22;;
20611;SDS011;10465;42.686;23.364;2024-01-07T11:09:26;11.32;;;6.97;;
20611;SDS011;10465;42.686;23.364;2024-01-07T11:11:49;10.55;;;6.18;;
20611;SDS011;10465;42.686;23.364;2024-01-07T11:20:01;9.82;;;5.72;;
20611;SDS011;10465;42.686;23.364;2024-01-07T11:22:27;9.43;;;5.47;;
20611;SDS011;10465;42.686;23.364;2024-01-07T11:24:56;7.93;;;5.38;;
20611;SDS011;10465;42.686;23.364;2024-01-07T11:27:23;6.43;;;3.97;;
20611;SDS011;10465;42.686;23.364;2024-01-07T11:29:53;10.75;;;4.93;;
20611;SDS011;10465;42.686;23.364;2024-01-07T11:32:22;8.52;;;4.35;;
20611;SDS011;10465;42.686;23.364;2024-01-07T11:34:50;8.02;;;5.00;;
20611;SDS011;10465;42.686;23.364;2024-01-07T11:37:18;8.35;;;5.32;;
20611;SDS011;10465;42.686;23.364;2024-01-07T11:39:45;8.48;;;5.10;;
20611;SDS011;10465;42.686;23.364;2024-01-07T11:42:11;9.05;;;4.82;;
20611;SDS011;10465;42.686;23.364;2024-01-07T11:44:38;7.85;;;4.85;;
20611;SDS011;10465;42.686;23.364;2024-01-07T11:47:10;7.97;;;4.13;;
20611;SDS011;10465;42.686;23.364;2024-01-07T11:49:35;5.93;;;3.75;;
20611;SDS011;10465;42.686;23.364;2024-01-07T11:52:01;5.70;;;4.00;;
20611;SDS011;10465;42.686;23.364;2024-01-07T11:54:29;6.63;;;4.13;;
20611;SDS011;10465;42.686;23.364;2024-01-07T11:56:56;6.90;;;3.63;;
20611;SDS011;10465;42.686;23.364;2024-01-07T11:59:22;4.78;;;2.80;;
20611;SDS011;10465;42.686;23.364;2024-01-07T12:01:48;6.53;;;2.58;;
20611;SDS011;10465;42.686;23.364;2024-01-07T12:04:13;3.42;;;2.53;;
20611;SDS011;10465;42.686;23.364;2024-01-07T12:06:39;5.53;;;2.95;;
20611;SDS011;10465;42.686;23.364;2024-01-07T12:09:05;9.77;;;3.63;;
20611;SDS011;10465;42.686;23.364;2024-01-07T12:11:31;6.30;;;3.47;;
20611;SDS011;10465;42.686;23.364;2024-01-07T12:13:57;5.80;;;3.00;;
20611;SDS011;10465;42.686;23.364;2024-01-07T12:16:23;4.78;;;2.13;;
20611;SDS011;10465;42.686;23.364;2024-01-07T12:18:49;4.45;;;2.88;;
20611;SDS011;10465;42.686;23.364;2024-01-07T12:21:20;3.35;;;2.50;;
20611;SDS011;10465;42.686;23.364;2024-01-07T12:23:49;3.97;;;2.30;;
20611;SDS011;10465;42.686;23.364;2024-01-07T12:26:16;5.32;;;2.25;;
20611;SDS011;10465;42.686;23.364;2024-01-07T12:28:42;3.70;;;2.10;;
20611;SDS011;10465;42.686;23.364;2024-01-07T12:31:08;3.40;;;1.83;;
20611;SDS011;10465;42.686;23.364;2024-01-07T12:33:36;2.67;;;2.28;;
20611;SDS011;10465;42.686;23.364;2024-01-07T12:36:02;5.18;;;2.50;;
20611;SDS011;10465;42.686;23.364;2024-01-07T12:38:28;5.60;;;3.10;;
20611;SDS011;10465;42.686;23.364;2024-01-07T12:40:54;3.65;;;2.97;;
20611;SDS011;10465;42.686;23.364;2024-01-07T12:43:19;4.78;;;3.03;;
20611;SDS011;10465;42.686;23.364;2024-01-07T12:45:45;5.72;;;3.03;;
20611;SDS011;10465;42.686;23.364;2024-01-07T12:48:12;6.57;;;2.80;;
20611;SDS011;10465;42.686;23.364;2024-01-07T12:50:37;4.57;;;3.20;;
20611;SDS011;10465;42.686;23.364;2024-01-07T12:53:03;5.63;;;2.67;;
20611;SDS011;10465;42.686;23.364;2024-01-07T12:55:29;7.13;;;3.47;;
20611;SDS011;10465;42.686;23.364;2024-01-07T12:57:54;4.68;;;3.10;;
20611;SDS011;10465;42.686;23.364;2024-01-07T13:00:20;3.63;;;2.42;;
20611;SDS011;10465;42.686;23.364;2024-01-07T13:02:45;10.93;;;3.45;;
20611;SDS011;10465;42.686;23.364;2024-01-07T13:05:11;4.35;;;2.58;;
20611;SDS011;10465;42.686;23.364;2024-01-07T13:07:37;5.97;;;3.47;;
20611;SDS011;10465;42.686;23.364;2024-01-07T13:10:03;9.40;;;3.92;;
20611;SDS011;10465;42.686;23.364;2024-01-07T13:12:29;6.75;;;3.53;;
20611;SDS011;10465;42.686;23.364;2024-01-07T13:14:54;6.13;;;3.50;;
20611;SDS011;10465;42.686;23.364;2024-01-07T13:17:20;7.22;;;3.30;;
20611;SDS011;10465;42.686;23.364;2024-01-07T13:19:45;5.72;;;3.42;;
20611;SDS011;10465;42.686;23.364;2024-01-07T13:22:10;6.95;;;3.40;;
20611;SDS011;10465;42.686;23.364;2024-01-07T13:24:36;6.50;;;3.47;;
20611;SDS011;10465;42.686;23.364;2024-01-07T13:27:02;5.55;;;3.50;;
20611;SDS011;10465;42.686;23.364;2024-01-07T13:29:27;5.78;;;3.80;;
20611;SDS011;10465;42.686;23.364;2024-01-07T13:31:53;5.72;;;3.70;;
20611;SDS011;10465;42.686;23.364;2024-01-07T13:34:18;7.35;;;4.03;;
20611;SDS011;10465;42.686;23.364;2024-01-07T13:36:44;7.60;;;3.75;;
20611;SDS011;10465;42.686;23.364;2024-01-07T13:39:09;5.85;;;3.40;;
20611;SDS011;10465;42.686;23.364;2024-01-07T13:41:35;7.20;;;3.45;;
20611;SDS011;10465;42.686;23.364;2024-01-07T13:44:02;5.72;;;3.05;;
20611;SDS011;10465;42.686;23.364;2024-01-07T13:46:32;8.10;;;3.25;;
20611;SDS011;10465;42.686;23.364;2024-01-07T13:48:57;6.93;;;3.38;;
20611;SDS011;10465;42.686;23.364;2024-01-07T13:51:23;7.03;;;3.58;;
20611;SDS011;10465;42.686;23.364;2024-01-07T13:53:48;7.25;;;3.90;;
20611;SDS011;10465;42.686;23.364;2024-01-07T13:56:14;6.65;;;3.75;;
20611;SDS011;10465;42.686;23.364;2024-01-07T13:58:39;10.13;;;5.40;;
20611;SDS011;10465;42.686;23.364;2024-01-07T14:01:05;11.70;;;5.03;;
20611;SDS011;10465;42.686;23.364;2024-01-07T14:03:30;12.73;;;4.57;;
20611;SDS011;10465;42.686;23.364;2024-01-07T14:05:57;9.05;;;4.13;;
20611;SDS011;10465;42.686;23.364;2024-01-07T14:08:23;9.65;;;5.07;;
20611;SDS011;10465;42.686;23.364;2024-01-07T14:10:49;10.68;;;5.07;;
20611;SDS011;10465;42.686;23.364;2024-01-07T14:13:14;9.77;;;4.78;;
20611;SDS011;10465;42.686;23.364;2024-01-07T14:15:40;9.70;;;4.35;;
20611;SDS011;10465;42.686;23.364;2024-01-07T14:18:05;8.00;;;4.65;;
20611;SDS011;10465;42.686;23.364;2024-01-07T14:20:31;8.57;;;4.90;;
20611;SDS011;10465;42.686;23.364;2024-01-07T14:22:57;5.22;;;3.45;;
20611;SDS011;10465;42.686;23.364;2024-01-07T14:25:22;6.13;;;3.20;;
20611;SDS011;10465;42.686;23.364;2024-01-07T14:27:48;6.00;;;3.80;;
20611;SDS011;10465;42.686;23.364;2024-01-07T14:30:13;5.78;;;3.33;;
20611;SDS011;10465;42.686;23.364;2024-01-07T14:32:42;7.50;;;3.80;;
20611;SDS011;10465;42.686;23.364;2024-01-07T14:35:09;8.43;;;4.45;;
20611;SDS011;10465;42.686;23.364;2024-01-07T14:37:37;6.75;;;4.97;;
20611;SDS011;10465;42.686;23.364;2024-01-07T14:40:02;8.48;;;4.10;;